sensor_id;sensor_type;location;lat;lon;timestamp;pressure;altitude;pressure_sealevel;temperature
64394;BMP280;50712;49.506;10.400;2023-05-02T00:00:18;98060.00;;;12.65
64394;BMP280;50712;49.506;10.400;2023-05-02T00:00:48;98065.44;;;12.65
64394;BMP280;50712;49.506;10.400;2023-05-02T00:01:19;98067.72;;;12.66
64394;BMP280;50712;49.506;10.400;2023-05-02T00:01:50;98068.91;;;12.65
64394;BMP280;50712;49.506;10.400;2023-05-02T00:02:21;98066.94;;;12.66
64394;BMP280;50712;49.506;10.400;2023-05-02T00:02:51;98067.25;;;12.68
64394;BMP280;50712;49.506;10.400;2023-05-02T00:03:21;98068.00;;;12.68
64394;BMP280;50712;49.506;10.400;2023-05-02T00:03:52;98065.25;;;12.68
64394;BMP280;50712;49.506;10.400;2023-05-02T00:04:22;98066.03;;;12.69
64394;BMP280;50712;49.506;10.400;2023-05-02T00:04:53;98064.06;;;12.69
64394;BMP280;50712;49.506;10.400;2023-05-02T00:05:23;98064.81;;;12.70
64394;BMP280;50712;49.506;10.400;2023-05-02T00:05:54;98064.81;;;12.70
64394;BMP280;50712;49.506;10.400;2023-05-02T00:06:24;98066.78;;;12.69
64394;BMP280;50712;49.506;10.400;2023-05-02T00:06:55;98062.09;;;12.70
64394;BMP280;50712;49.506;10.400;2023-05-02T00:07:25;98058.59;;;12.69
64394;BMP280;50712;49.506;10.400;2023-05-02T00:07:56;98062.53;;;12.68
64394;BMP280;50712;49.506;10.400;2023-05-02T00:08:26;98061.03;;;12.67
64394;BMP280;50712;49.506;10.400;2023-05-02T00:08:57;98065.25;;;12.68
64394;BMP280;50712;49.506;10.400;2023-05-02T00:09:28;98061.03;;;12.67
64394;BMP280;50712;49.506;10.400;2023-05-02T00:09:58;98059.53;;;12.66
64394;BMP280;50712;49.506;10.400;2023-05-02T00:10:31;98066.50;;;12.67
64394;BMP280;50712;49.506;10.400;2023-05-02T00:11:02;98065.72;;;12.67
64394;BMP280;50712;49.506;10.400;2023-05-02T00:11:32;98063.00;;;12.67
64394;BMP280;50712;49.506;10.400;2023-05-02T00:12:03;98063.75;;;12.67
64394;BMP280;50712;49.506;10.400;2023-05-02T00:12:33;98066.50;;;12.67
64394;BMP280;50712;49.506;10.400;2023-05-02T00:13:04;98062.25;;;12.66
64394;BMP280;50712;49.506;10.400;2023-05-02T00:13:35;98060.25;;;12.67
64394;BMP280;50712;49.506;10.400;2023-05-02T00:14:06;98063.00;;;12.67
64394;BMP280;50712;49.506;10.400;2023-05-02T00:14:36;98066.19;;;12.65
64394;BMP280;50712;49.506;10.400;2023-05-02T00:15:06;98060.25;;;12.67
64394;BMP280;50712;49.506;10.400;2023-05-02T00:15:37;98063.44;;;12.65
64394;BMP280;50712;49.506;10.400;2023-05-02T00:16:08;98056.50;;;12.64
64394;BMP280;50712;49.506;10.400;2023-05-02T00:16:38;98063.91;;;12.63
64394;BMP280;50712;49.506;10.400;2023-05-02T00:17:15;98059.66;;;12.62
64394;BMP280;50712;49.506;10.400;2023-05-02T00:17:46;98062.38;;;12.62
64394;BMP280;50712;49.506;10.400;2023-05-02T00:18:16;98058.88;;;12.62
64394;BMP280;50712;49.506;10.400;2023-05-02T00:18:47;98058.88;;;12.62
64394;BMP280;50712;49.506;10.400;2023-05-02T00:19:18;98062.38;;;12.62
64394;BMP280;50712;49.506;10.400;2023-05-02T00:19:48;98056.16;;;12.62
64394;BMP280;50712;49.506;10.400;2023-05-02T00:20:18;98062.38;;;12.62
64394;BMP280;50712;49.506;10.400;2023-05-02T00:20:49;98066.34;;;12.61
64394;BMP280;50712;49.506;10.400;2023-05-02T00:21:19;98053.13;;;12.60
64394;BMP280;50712;49.506;10.400;2023-05-02T00:21:50;98056.63;;;12.60
64394;BMP280;50712;49.506;10.400;2023-05-02T00:22:20;98053.88;;;12.60
64394;BMP280;50712;49.506;10.400;2023-05-02T00:22:51;98055.84;;;12.60
64394;BMP280;50712;49.506;10.400;2023-05-02T00:23:21;98055.09;;;12.59
64394;BMP280;50712;49.506;10.400;2023-05-02T00:23:51;98064.06;;;12.60
64394;BMP280;50712;49.506;10.400;2023-05-02T00:24:22;98055.84;;;12.60
64394;BMP280;50712;49.506;10.400;2023-05-02T00:24:56;98053.13;;;12.60
64394;BMP280;50712;49.506;10.400;2023-05-02T00:25:27;98056.31;;;12.58
64394;BMP280;50712;49.506;10.400;2023-05-02T00:25:57;98058.59;;;12.60
64394;BMP280;50712;49.506;10.400;2023-05-02T00:26:28;98052.84;;;12.58
64394;BMP280;50712;49.506;10.400;2023-05-02T00:26:58;98058.31;;;12.58
64394;BMP280;50712;49.506;10.400;2023-05-02T00:27:29;98057.56;;;12.57
64394;BMP280;50712;49.506;10.400;2023-05-02T00:27:59;98047.81;;;12.56
64394;BMP280;50712;49.506;10.400;2023-05-02T00:28:30;98059.22;;;12.55
64394;BMP280;50712;49.506;10.400;2023-05-02T00:29:02;98051.03;;;12.55
64394;BMP280;50712;49.506;10.400;2023-05-02T00:29:32;98049.50;;;12.54
64394;BMP280;50712;49.506;10.400;2023-05-02T00:30:03;98052.97;;;12.54
64394;BMP280;50712;49.506;10.400;2023-05-02T00:30:33;98059.97;;;12.55
64394;BMP280;50712;49.506;10.400;2023-05-02T00:31:04;98054.94;;;12.54
64394;BMP280;50712;49.506;10.400;2023-05-02T00:31:34;98054.94;;;12.54
64394;BMP280;50712;49.506;10.400;2023-05-02T00:32:05;98050.69;;;12.53
64394;BMP280;50712;49.506;10.400;2023-05-02T00:32:36;98058.88;;;12.53
64394;BMP280;50712;49.506;10.400;2023-05-02T00:33:07;98053.44;;;12.53
64394;BMP280;50712;49.506;10.400;2023-05-02T00:33:37;98049.94;;;12.52
64394;BMP280;50712;49.506;10.400;2023-05-02T00:34:07;98051.19;;;12.51
64394;BMP280;50712;49.506;10.400;2023-05-02T00:34:38;98057.41;;;12.52
64394;BMP280;50712;49.506;10.400;2023-05-02T00:35:08;98051.19;;;12.51
64394;BMP280;50712;49.506;10.400;2023-05-02T00:35:39;98051.19;;;12.51
64394;BMP280;50712;49.506;10.400;2023-05-02T00:36:16;98052.38;;;12.50
64394;BMP280;50712;49.506;10.400;2023-05-02T00:36:48;98048.88;;;12.50
64394;BMP280;50712;49.506;10.400;2023-05-02T00:37:18;98053.16;;;12.51
64394;BMP280;50712;49.506;10.400;2023-05-02T00:37:48;98055.13;;;12.50
64394;BMP280;50712;49.506;10.400;2023-05-02T00:38:19;98052.38;;;12.50
64394;BMP280;50712;49.506;10.400;2023-05-02T00:38:49;98054.34;;;12.50
64394;BMP280;50712;49.506;10.400;2023-05-02T00:39:20;98048.88;;;12.50
64394;BMP280;50712;49.506;10.400;2023-05-02T00:39:50;98043.41;;;12.50
64394;BMP280;50712;49.506;10.400;2023-05-02T00:40:20;98045.38;;;12.49
64394;BMP280;50712;49.506;10.400;2023-05-02T00:40:51;98042.66;;;12.49
64394;BMP280;50712;49.506;10.400;2023-05-02T00:41:22;98043.88;;;12.48
64394;BMP280;50712;49.506;10.400;2023-05-02T00:41:56;98052.81;;;12.49
64394;BMP280;50712;49.506;10.400;2023-05-02T00:42:27;98054.81;;;12.48
64394;BMP280;50712;49.506;10.400;2023-05-02T00:43:00;98051.31;;;12.48
64394;BMP280;50712;49.506;10.400;2023-05-02T00:43:31;98055.25;;;12.47
64394;BMP280;50712;49.506;10.400;2023-05-02T00:44:01;98047.81;;;12.47
64394;BMP280;50712;49.506;10.400;2023-05-02T00:44:32;98051.75;;;12.46
64394;BMP280;50712;49.506;10.400;2023-05-02T00:45:03;98055.25;;;12.47
64394;BMP280;50712;49.506;10.400;2023-05-02T00:45:35;98049.78;;;12.47
64394;BMP280;50712;49.506;10.400;2023-05-02T00:46:05;98049.78;;;12.47
64394;BMP280;50712;49.506;10.400;2023-05-02T00:46:36;98043.56;;;12.46
64394;BMP280;50712;49.506;10.400;2023-05-02T00:47:07;98046.28;;;12.46
64394;BMP280;50712;49.506;10.400;2023-05-02T00:47:37;98054.47;;;12.46
64394;BMP280;50712;49.506;10.400;2023-05-02T00:48:08;98050.56;;;12.47
64394;BMP280;50712;49.506;10.400;2023-05-02T00:48:39;98051.75;;;12.46
64394;BMP280;50712;49.506;10.400;2023-05-02T00:49:10;98045.53;;;12.46
64394;BMP280;50712;49.506;10.400;2023-05-02T00:49:41;98048.25;;;12.46
64394;BMP280;50712;49.506;10.400;2023-05-02T00:50:11;98049.03;;;12.46
64394;BMP280;50712;49.506;10.400;2023-05-02T00:50:42;98053.00;;;12.45
64394;BMP280;50712;49.506;10.400;2023-05-02T00:51:12;98048.25;;;12.46
64394;BMP280;50712;49.506;10.400;2023-05-02T00:51:43;98055.25;;;12.47
64394;BMP280;50712;49.506;10.400;2023-05-02T00:52:13;98050.97;;;12.46
64394;BMP280;50712;49.506;10.400;2023-05-02T00:52:43;98052.53;;;12.47
64394;BMP280;50712;49.506;10.400;2023-05-02T00:53:14;98053.28;;;12.47
64394;BMP280;50712;49.506;10.400;2023-05-02T00:53:45;98053.28;;;12.47
64394;BMP280;50712;49.506;10.400;2023-05-02T00:54:15;98054.81;;;12.48
64394;BMP280;50712;49.506;10.400;2023-05-02T00:54:46;98052.09;;;12.48
64394;BMP280;50712;49.506;10.400;2023-05-02T00:55:17;98055.56;;;12.49
64394;BMP280;50712;49.506;10.400;2023-05-02T00:55:48;98052.81;;;12.49
64394;BMP280;50712;49.506;10.400;2023-05-02T00:56:18;98055.13;;;12.50
64394;BMP280;50712;49.506;10.400;2023-05-02T00:56:48;98053.16;;;12.51
64394;BMP280;50712;49.506;10.400;2023-05-02T00:57:19;98052.38;;;12.50
64394;BMP280;50712;49.506;10.400;2023-05-02T00:57:49;98053.91;;;12.51
64394;BMP280;50712;49.506;10.400;2023-05-02T00:58:20;98058.63;;;12.51
64394;BMP280;50712;49.506;10.400;2023-05-02T00:58:50;98053.16;;;12.51
64394;BMP280;50712;49.506;10.400;2023-05-02T00:59:21;98054.69;;;12.52
64394;BMP280;50712;49.506;10.400;2023-05-02T00:59:51;98048.44;;;12.51
64394;BMP280;50712;49.506;10.400;2023-05-02T01:00:23;98051.94;;;12.52
64394;BMP280;50712;49.506;10.400;2023-05-02T01:01:09;98051.94;;;12.52
64394;BMP280;50712;49.506;10.400;2023-05-02T01:02:57;98049.66;;;12.50
64394;BMP280;50712;49.506;10.400;2023-05-02T01:05:17;98042.66;;;12.49
64394;BMP280;50712;49.506;10.400;2023-05-02T01:05:57;98046.63;;;12.48
64394;BMP280;50712;49.506;10.400;2023-05-02T01:08:19;98047.06;;;12.47
64394;BMP280;50712;49.506;10.400;2023-05-02T01:09:12;98044.81;;;12.45
64394;BMP280;50712;49.506;10.400;2023-05-02T01:10:43;98052.69;;;12.43
64394;BMP280;50712;49.506;10.400;2023-05-02T01:11:26;98045.72;;;12.42
64394;BMP280;50712;49.506;10.400;2023-05-02T01:12:07;98055.13;;;12.41
64394;BMP280;50712;49.506;10.400;2023-05-02T01:13:28;98050.09;;;12.40
64394;BMP280;50712;49.506;10.400;2023-05-02T01:14:03;98052.81;;;12.40
64394;BMP280;50712;49.506;10.400;2023-05-02T01:14:37;98050.09;;;12.40
64394;BMP280;50712;49.506;10.400;2023-05-02T01:15:15;98051.31;;;12.39
64394;BMP280;50712;49.506;10.400;2023-05-02T01:15:47;98057.50;;;12.39
64394;BMP280;50712;49.506;10.400;2023-05-02T01:16:20;98054.03;;;12.39
64394;BMP280;50712;49.506;10.400;2023-05-02T01:16:53;98046.31;;;12.37
64394;BMP280;50712;49.506;10.400;2023-05-02T01:17:28;98057.25;;;12.37
64394;BMP280;50712;49.506;10.400;2023-05-02T01:18:01;98061.50;;;12.38
64394;BMP280;50712;49.506;10.400;2023-05-02T01:18:35;98056.03;;;12.38
64394;BMP280;50712;49.506;10.400;2023-05-02T01:19:08;98062.69;;;12.37
64394;BMP280;50712;49.506;10.400;2023-05-02T01:19:50;98059.50;;;12.39
64394;BMP280;50712;49.506;10.400;2023-05-02T01:20:25;98058.00;;;12.38
64394;BMP280;50712;49.506;10.400;2023-05-02T01:20:59;98062.69;;;12.37
64394;BMP280;50712;49.506;10.400;2023-05-02T01:21:32;98049.03;;;12.37
64394;BMP280;50712;49.506;10.400;2023-05-02T01:22:04;98058.00;;;12.38
64394;BMP280;50712;49.506;10.400;2023-05-02T01:22:37;98049.03;;;12.37
64394;BMP280;50712;49.506;10.400;2023-05-02T01:23:16;98054.50;;;12.37
64394;BMP280;50712;49.506;10.400;2023-05-02T01:24:15;98059.22;;;12.37
64394;BMP280;50712;49.506;10.400;2023-05-02T01:25:55;98062.69;;;12.37
64394;BMP280;50712;49.506;10.400;2023-05-02T01:26:32;98059.22;;;12.37
64394;BMP280;50712;49.506;10.400;2023-05-02T01:27:14;98063.91;;;12.36
64394;BMP280;50712;49.506;10.400;2023-05-02T01:27:56;98061.16;;;12.36
64394;BMP280;50712;49.506;10.400;2023-05-02T01:29:23;98059.97;;;12.37
64394;BMP280;50712;49.506;10.400;2023-05-02T01:29:56;98055.72;;;12.36
64394;BMP280;50712;49.506;10.400;2023-05-02T01:30:30;98063.91;;;12.36
64394;BMP280;50712;49.506;10.400;2023-05-02T01:31:03;98056.47;;;12.37
64394;BMP280;50712;49.506;10.400;2023-05-02T01:31:35;98061.94;;;12.37
64394;BMP280;50712;49.506;10.400;2023-05-02T01:32:08;98059.97;;;12.37
64394;BMP280;50712;49.506;10.400;2023-05-02T01:32:43;98058.44;;;12.36
64394;BMP280;50712;49.506;10.400;2023-05-02T01:33:15;98056.47;;;12.37
64394;BMP280;50712;49.506;10.400;2023-05-02T01:33:48;98069.38;;;12.36
64394;BMP280;50712;49.506;10.400;2023-05-02T01:34:19;98054.97;;;12.36
64394;BMP280;50712;49.506;10.400;2023-05-02T01:34:51;98058.44;;;12.36
64394;BMP280;50712;49.506;10.400;2023-05-02T01:35:23;98054.97;;;12.36
64394;BMP280;50712;49.506;10.400;2023-05-02T01:35:56;98062.41;;;12.35
64394;BMP280;50712;49.506;10.400;2023-05-02T01:36:30;98063.16;;;12.36
64394;BMP280;50712;49.506;10.400;2023-05-02T01:37:01;98060.44;;;12.36
64394;BMP280;50712;49.506;10.400;2023-05-02T01:37:33;98054.22;;;12.35
64394;BMP280;50712;49.506;10.400;2023-05-02T01:38:07;98058.91;;;12.35
64394;BMP280;50712;49.506;10.400;2023-05-02T01:38:37;98060.44;;;12.36
64394;BMP280;50712;49.506;10.400;2023-05-02T01:39:12;98065.13;;;12.35
64394;BMP280;50712;49.506;10.400;2023-05-02T01:39:47;98056.19;;;12.35
64394;BMP280;50712;49.506;10.400;2023-05-02T01:40:19;98058.13;;;12.34
64394;BMP280;50712;49.506;10.400;2023-05-02T01:40:51;98064.38;;;12.35
64394;BMP280;50712;49.506;10.400;2023-05-02T01:41:25;98058.13;;;12.34
64394;BMP280;50712;49.506;10.400;2023-05-02T01:41:56;98066.78;;;12.33
64394;BMP280;50712;49.506;10.400;2023-05-02T01:42:31;98059.34;;;12.33
64394;BMP280;50712;49.506;10.400;2023-05-02T01:43:05;98064.81;;;12.33
64394;BMP280;50712;49.506;10.400;2023-05-02T01:43:37;98067.53;;;12.33
64394;BMP280;50712;49.506;10.400;2023-05-02T01:44:10;98062.06;;;12.33
64394;BMP280;50712;49.506;10.400;2023-05-02T01:44:43;98060.56;;;12.32
64394;BMP280;50712;49.506;10.400;2023-05-02T01:45:14;98062.06;;;12.33
64394;BMP280;50712;49.506;10.400;2023-05-02T01:45:46;98064.81;;;12.33
64394;BMP280;50712;49.506;10.400;2023-05-02T01:46:19;98063.31;;;12.32
64394;BMP280;50712;49.506;10.400;2023-05-02T01:46:51;98066.78;;;12.33
64394;BMP280;50712;49.506;10.400;2023-05-02T01:47:24;98066.78;;;12.33
64394;BMP280;50712;49.506;10.400;2023-05-02T01:47:57;98068.03;;;12.32
64394;BMP280;50712;49.506;10.400;2023-05-02T01:48:29;98060.25;;;12.30
64394;BMP280;50712;49.506;10.400;2023-05-02T01:49:02;98070.75;;;12.32
64394;BMP280;50712;49.506;10.400;2023-05-02T01:49:34;98069.22;;;12.31
64394;BMP280;50712;49.506;10.400;2023-05-02T01:50:07;98067.69;;;12.30
64394;BMP280;50712;49.506;10.400;2023-05-02T01:50:40;98071.19;;;12.30
64394;BMP280;50712;49.506;10.400;2023-05-02T01:51:14;98073.94;;;12.30
64394;BMP280;50712;49.506;10.400;2023-05-02T01:51:48;98070.44;;;12.30
64394;BMP280;50712;49.506;10.400;2023-05-02T01:52:19;98067.69;;;12.30
64394;BMP280;50712;49.506;10.400;2023-05-02T01:52:52;98068.47;;;12.30
64394;BMP280;50712;49.506;10.400;2023-05-02T01:53:24;98067.69;;;12.30
64394;BMP280;50712;49.506;10.400;2023-05-02T01:53:58;98073.94;;;12.30
64394;BMP280;50712;49.506;10.400;2023-05-02T01:54:32;98075.88;;;12.30
64394;BMP280;50712;49.506;10.400;2023-05-02T01:55:06;98073.94;;;12.30
64394;BMP280;50712;49.506;10.400;2023-05-02T01:55:41;98076.66;;;12.30
64394;BMP280;50712;49.506;10.400;2023-05-02T01:56:15;98069.22;;;12.31
64394;BMP280;50712;49.506;10.400;2023-05-02T01:56:48;98075.47;;;12.31
64394;BMP280;50712;49.506;10.400;2023-05-02T01:57:19;98078.97;;;12.32
64394;BMP280;50712;49.506;10.400;2023-05-02T01:57:49;98079.38;;;12.30
64394;BMP280;50712;49.506;10.400;2023-05-02T01:58:23;98076.66;;;12.30
64394;BMP280;50712;49.506;10.400;2023-05-02T01:58:57;98074.69;;;12.31
64394;BMP280;50712;49.506;10.400;2023-05-02T01:59:29;98076.66;;;12.30
64394;BMP280;50712;49.506;10.400;2023-05-02T02:00:04;98075.88;;;12.30
64394;BMP280;50712;49.506;10.400;2023-05-02T02:00:43;98075.88;;;12.30
64394;BMP280;50712;49.506;10.400;2023-05-02T02:01:15;98074.69;;;12.31
64394;BMP280;50712;49.506;10.400;2023-05-02T02:01:47;98077.41;;;12.31
64394;BMP280;50712;49.506;10.400;2023-05-02T02:02:20;98084.09;;;12.30
64394;BMP280;50712;49.506;10.400;2023-05-02T02:02:53;98084.09;;;12.30
64394;BMP280;50712;49.506;10.400;2023-05-02T02:03:25;98081.34;;;12.30
64394;BMP280;50712;49.506;10.400;2023-05-02T02:03:57;98077.88;;;12.29
64394;BMP280;50712;49.506;10.400;2023-05-02T02:04:29;98078.63;;;12.30
64394;BMP280;50712;49.506;10.400;2023-05-02T02:05:01;98076.66;;;12.30
64394;BMP280;50712;49.506;10.400;2023-05-02T02:05:34;98075.16;;;12.29
64394;BMP280;50712;49.506;10.400;2023-05-02T02:06:07;98088.81;;;12.29
64394;BMP280;50712;49.506;10.400;2023-05-02T02:06:38;98083.34;;;12.29
64394;BMP280;50712;49.506;10.400;2023-05-02T02:07:12;98084.56;;;12.28
64394;BMP280;50712;49.506;10.400;2023-05-02T02:07:43;98083.34;;;12.29
64394;BMP280;50712;49.506;10.400;2023-05-02T02:08:14;98083.34;;;12.29
64394;BMP280;50712;49.506;10.400;2023-05-02T02:08:44;98084.09;;;12.30
64394;BMP280;50712;49.506;10.400;2023-05-02T02:09:15;98079.09;;;12.28
64394;BMP280;50712;49.506;10.400;2023-05-02T02:09:45;98085.31;;;12.29
64394;BMP280;50712;49.506;10.400;2023-05-02T02:10:16;98086.09;;;12.29
64394;BMP280;50712;49.506;10.400;2023-05-02T02:10:49;98088.81;;;12.29
64394;BMP280;50712;49.506;10.400;2023-05-02T02:11:25;98086.09;;;12.29
64394;BMP280;50712;49.506;10.400;2023-05-02T02:12:58;98084.09;;;12.30
64394;BMP280;50712;49.506;10.400;2023-05-02T02:13:36;98084.09;;;12.30
64394;BMP280;50712;49.506;10.400;2023-05-02T02:14:24;98092.28;;;12.30
64394;BMP280;50712;49.506;10.400;2023-05-02T02:15:19;98089.56;;;12.30
64394;BMP280;50712;49.506;10.400;2023-05-02T02:15:57;98095.47;;;12.28
64394;BMP280;50712;49.506;10.400;2023-05-02T02:16:31;98085.31;;;12.29
64394;BMP280;50712;49.506;10.400;2023-05-02T02:17:11;98090.00;;;12.28
64394;BMP280;50712;49.506;10.400;2023-05-02T02:17:47;98086.97;;;12.26
64394;BMP280;50712;49.506;10.400;2023-05-02T02:18:24;98095.91;;;12.27
64394;BMP280;50712;49.506;10.400;2023-05-02T02:18:58;98096.38;;;12.25
64394;BMP280;50712;49.506;10.400;2023-05-02T02:19:36;98098.38;;;12.25
64394;BMP280;50712;49.506;10.400;2023-05-02T02:20:09;98098.38;;;12.25
64394;BMP280;50712;49.506;10.400;2023-05-02T02:20:42;98111.25;;;12.24
64394;BMP280;50712;49.506;10.400;2023-05-02T02:21:16;98100.34;;;12.24
64394;BMP280;50712;49.506;10.400;2023-05-02T02:21:48;98099.56;;;12.24
64394;BMP280;50712;49.506;10.400;2023-05-02T02:22:20;98094.09;;;12.24
64394;BMP280;50712;49.506;10.400;2023-05-02T02:22:53;98103.06;;;12.24
64394;BMP280;50712;49.506;10.400;2023-05-02T02:23:25;98097.59;;;12.24
64394;BMP280;50712;49.506;10.400;2023-05-02T02:23:58;98099.56;;;12.24
64394;BMP280;50712;49.506;10.400;2023-05-02T02:24:33;98099.56;;;12.24
64394;BMP280;50712;49.506;10.400;2023-05-02T02:25:06;98101.56;;;12.23
64394;BMP280;50712;49.506;10.400;2023-05-02T02:25:40;98100.34;;;12.24
64394;BMP280;50712;49.506;10.400;2023-05-02T02:26:12;98103.81;;;12.25
64394;BMP280;50712;49.506;10.400;2023-05-02T02:26:45;98105.78;;;12.24
64394;BMP280;50712;49.506;10.400;2023-05-02T02:27:16;98109.28;;;12.25
64394;BMP280;50712;49.506;10.400;2023-05-02T02:27:46;98108.53;;;12.24
64394;BMP280;50712;49.506;10.400;2023-05-02T02:28:17;98112.75;;;12.25
64394;BMP280;50712;49.506;10.400;2023-05-02T02:28:48;98106.56;;;12.25
64394;BMP280;50712;49.506;10.400;2023-05-02T02:29:18;98119.00;;;12.26
64394;BMP280;50712;49.506;10.400;2023-05-02T02:29:49;98110.78;;;12.26
64394;BMP280;50712;49.506;10.400;2023-05-02T02:30:20;98106.56;;;12.25
64394;BMP280;50712;49.506;10.400;2023-05-02T02:30:50;98109.28;;;12.25
64394;BMP280;50712;49.506;10.400;2023-05-02T02:31:21;98112.75;;;12.25
64394;BMP280;50712;49.506;10.400;2023-05-02T02:31:54;98115.50;;;12.25
64394;BMP280;50712;49.506;10.400;2023-05-02T02:32:24;98115.50;;;12.25
64394;BMP280;50712;49.506;10.400;2023-05-02T02:32:55;98111.56;;;12.26
64394;BMP280;50712;49.506;10.400;2023-05-02T02:33:27;98111.56;;;12.26
64394;BMP280;50712;49.506;10.400;2023-05-02T02:33:58;98114.75;;;12.25
64394;BMP280;50712;49.506;10.400;2023-05-02T02:34:29;98116.25;;;12.26
64394;BMP280;50712;49.506;10.400;2023-05-02T02:35:01;98118.22;;;12.25
64394;BMP280;50712;49.506;10.400;2023-05-02T02:35:39;98120.22;;;12.25
64394;BMP280;50712;49.506;10.400;2023-05-02T02:36:20;98123.69;;;12.25
64394;BMP280;50712;49.506;10.400;2023-05-02T02:37:10;98116.25;;;12.26
64394;BMP280;50712;49.506;10.400;2023-05-02T02:37:47;98117.50;;;12.25
64394;BMP280;50712;49.506;10.400;2023-05-02T02:38:31;98115.97;;;12.24
64394;BMP280;50712;49.506;10.400;2023-05-02T02:39:57;98123.41;;;12.23
64394;BMP280;50712;49.506;10.400;2023-05-02T02:40:40;98123.41;;;12.23
64394;BMP280;50712;49.506;10.400;2023-05-02T02:41:20;98117.94;;;12.23
64394;BMP280;50712;49.506;10.400;2023-05-02T02:42:57;98120.69;;;12.23
64394;BMP280;50712;49.506;10.400;2023-05-02T02:43:38;98126.16;;;12.23
64394;BMP280;50712;49.506;10.400;2023-05-02T02:44:28;98123.41;;;12.23
64394;BMP280;50712;49.506;10.400;2023-05-02T02:45:08;98120.69;;;12.23
64394;BMP280;50712;49.506;10.400;2023-05-02T02:46:59;98128.88;;;12.23
64394;BMP280;50712;49.506;10.400;2023-05-02T02:48:02;98125.38;;;12.23
64394;BMP280;50712;49.506;10.400;2023-05-02T02:50:03;98119.91;;;12.23
64394;BMP280;50712;49.506;10.400;2023-05-02T02:51:45;98125.38;;;12.23
64394;BMP280;50712;49.506;10.400;2023-05-02T02:52:32;98124.63;;;12.22
64394;BMP280;50712;49.506;10.400;2023-05-02T02:53:19;98122.66;;;12.23
64394;BMP280;50712;49.506;10.400;2023-05-02T02:53:58;98123.06;;;12.21
64394;BMP280;50712;49.506;10.400;2023-05-02T02:54:38;98125.81;;;12.21
64394;BMP280;50712;49.506;10.400;2023-05-02T02:55:30;98139.47;;;12.21
64394;BMP280;50712;49.506;10.400;2023-05-02T02:56:29;98128.53;;;12.21
64394;BMP280;50712;49.506;10.400;2023-05-02T02:57:11;98130.50;;;12.21
64394;BMP280;50712;49.506;10.400;2023-05-02T02:57:58;98132.47;;;12.20
64394;BMP280;50712;49.506;10.400;2023-05-02T02:59:33;98131.72;;;12.20
64394;BMP280;50712;49.506;10.400;2023-05-02T03:00:10;98135.19;;;12.20
64394;BMP280;50712;49.506;10.400;2023-05-02T03:00:45;98138.69;;;12.21
64394;BMP280;50712;49.506;10.400;2023-05-02T03:01:19;98137.94;;;12.20
64394;BMP280;50712;49.506;10.400;2023-05-02T03:01:55;98144.63;;;12.19
64394;BMP280;50712;49.506;10.400;2023-05-02T03:02:34;98139.16;;;12.19
64394;BMP280;50712;49.506;10.400;2023-05-02T03:03:06;98140.66;;;12.20
64394;BMP280;50712;49.506;10.400;2023-05-02T03:03:37;98146.13;;;12.20
64394;BMP280;50712;49.506;10.400;2023-05-02T03:04:09;98136.44;;;12.19
64394;BMP280;50712;49.506;10.400;2023-05-02T03:04:42;98146.13;;;12.20
64394;BMP280;50712;49.506;10.400;2023-05-02T03:05:15;98140.66;;;12.20
64394;BMP280;50712;49.506;10.400;2023-05-02T03:05:45;98143.41;;;12.20
64394;BMP280;50712;49.506;10.400;2023-05-02T03:06:18;98148.13;;;12.20
64394;BMP280;50712;49.506;10.400;2023-05-02T03:06:49;98147.34;;;12.19
64394;BMP280;50712;49.506;10.400;2023-05-02T03:07:20;98146.13;;;12.20
64394;BMP280;50712;49.506;10.400;2023-05-02T03:07:52;98150.84;;;12.20
64394;BMP280;50712;49.506;10.400;2023-05-02T03:08:25;98144.63;;;12.19
64394;BMP280;50712;49.506;10.400;2023-05-02T03:08:56;98147.34;;;12.19
64394;BMP280;50712;49.506;10.400;2023-05-02T03:09:41;98150.09;;;12.19
64394;BMP280;50712;49.506;10.400;2023-05-02T03:10:21;98154.78;;;12.19
64394;BMP280;50712;49.506;10.400;2023-05-02T03:10:52;98146.59;;;12.19
64394;BMP280;50712;49.506;10.400;2023-05-02T03:11:22;98152.81;;;12.19
64394;BMP280;50712;49.506;10.400;2023-05-02T03:11:53;98152.06;;;12.19
64394;BMP280;50712;49.506;10.400;2023-05-02T03:12:23;98156.31;;;12.20
64394;BMP280;50712;49.506;10.400;2023-05-02T03:12:54;98153.59;;;12.20
64394;BMP280;50712;49.506;10.400;2023-05-02T03:13:25;98150.09;;;12.19
64394;BMP280;50712;49.506;10.400;2023-05-02T03:13:55;98154.78;;;12.19
64394;BMP280;50712;49.506;10.400;2023-05-02T03:14:27;98146.59;;;12.19
64394;BMP280;50712;49.506;10.400;2023-05-02T03:16:30;98157.25;;;12.17
64394;BMP280;50712;49.506;10.400;2023-05-02T03:17:04;98149.78;;;12.17
64394;BMP280;50712;49.506;10.400;2023-05-02T03:17:37;98159.47;;;12.18
64394;BMP280;50712;49.506;10.400;2023-05-02T03:18:07;98158.75;;;12.18
64394;BMP280;50712;49.506;10.400;2023-05-02T03:18:38;98168.44;;;12.19
64394;BMP280;50712;49.506;10.400;2023-05-02T03:19:09;98156.75;;;12.18
64394;BMP280;50712;49.506;10.400;2023-05-02T03:19:40;98155.56;;;12.19
64394;BMP280;50712;49.506;10.400;2023-05-02T03:20:11;98160.25;;;12.19
64394;BMP280;50712;49.506;10.400;2023-05-02T03:20:41;98160.25;;;12.19
64394;BMP280;50712;49.506;10.400;2023-05-02T03:21:11;98158.28;;;12.19
64394;BMP280;50712;49.506;10.400;2023-05-02T03:21:42;98165.72;;;12.19
64394;BMP280;50712;49.506;10.400;2023-05-02T03:22:21;98161.78;;;12.20
64394;BMP280;50712;49.506;10.400;2023-05-02T03:22:51;98167.97;;;12.20
64394;BMP280;50712;49.506;10.400;2023-05-02T03:23:21;98163.28;;;12.21
64394;BMP280;50712;49.506;10.400;2023-05-02T03:23:53;98170.72;;;12.20
64394;BMP280;50712;49.506;10.400;2023-05-02T03:24:24;98173.44;;;12.20
64394;BMP280;50712;49.506;10.400;2023-05-02T03:24:56;98167.97;;;12.20
64394;BMP280;50712;49.506;10.400;2023-05-02T03:25:27;98172.25;;;12.21
64394;BMP280;50712;49.506;10.400;2023-05-02T03:25:58;98162.53;;;12.20
64394;BMP280;50712;49.506;10.400;2023-05-02T03:26:29;98174.22;;;12.21
64394;BMP280;50712;49.506;10.400;2023-05-02T03:27:00;98167.97;;;12.20